createdAt,value
2018-12-16T00:01:50.955Z,100852.14
2018-12-16T00:07:02.808Z,100839.70
2018-12-16T00:12:15.208Z,100823.06
2018-12-16T00:17:26.414Z,100810.27
2018-12-16T00:22:38.546Z,100810.73
2018-12-16T00:27:49.991Z,100784.31
2018-12-16T00:33:02.147Z,100787.23
2018-12-16T00:38:10.166Z,100760.86
2018-12-16T00:43:22.484Z,100756.97
2018-12-16T00:48:36.269Z,100743.71
2018-12-16T00:51:05.804Z,100742.42
2018-12-16T00:56:17.377Z,100730.08
2018-12-16T00:58:47.075Z,100725.33
2018-12-16T01:03:59.523Z,100721.54
2018-12-16T01:09:10.641Z,100734.28
2018-12-16T01:14:23.196Z,100709.56
2018-12-16T01:19:34.490Z,100709.56
2018-12-16T01:24:46.851Z,100705.36
2018-12-16T01:29:54.425Z,100694.16
2018-12-16T01:35:07.000Z,100745.91
2018-12-16T01:40:17.996Z,100701.52
2018-12-16T01:45:30.084Z,100686.57
2018-12-16T01:50:41.071Z,100677.98
2018-12-16T01:55:53.013Z,100661.80
2018-12-16T02:01:04.021Z,100649.36
2018-12-16T02:06:11.641Z,100636.98
2018-12-16T02:11:23.895Z,100654.09
2018-12-16T02:16:36.286Z,100617.94
2018-12-16T02:21:48.367Z,100627.73
2018-12-16T02:26:59.696Z,100610.50
2018-12-16T02:32:11.793Z,100589.98
2018-12-16T02:37:23.734Z,100592.83
2018-12-16T02:42:35.950Z,100628.38
2018-12-16T02:47:49.402Z,100598.98
2018-12-16T02:53:04.718Z,100566.31
2018-12-16T02:58:15.056Z,100577.86
2018-12-16T03:03:27.164Z,100554.41
2018-12-16T03:08:40.151Z,100562.06
2018-12-16T03:13:53.129Z,100554.04
2018-12-16T03:19:04.527Z,100560.37
2018-12-16T03:24:16.941Z,100535.70
2018-12-16T03:29:28.119Z,100549.59
2018-12-16T03:34:40.160Z,100528.21
2018-12-16T03:39:53.314Z,100522.65
2018-12-16T03:45:01.796Z,100530.78
2018-12-16T03:50:13.058Z,100510.70
2018-12-16T03:55:27.026Z,100511.02
2018-12-16T04:00:38.128Z,100502.91
2018-12-16T04:05:50.281Z,100503.42
2018-12-16T04:11:01.291Z,100495.25
2018-12-16T04:16:15.682Z,100511.80
2018-12-16T04:21:33.524Z,100504.13
2018-12-16T04:26:44.596Z,100524.55
2018-12-16T04:31:59.222Z,100503.61
2018-12-16T04:37:10.246Z,100527.45
2018-12-16T04:42:21.480Z,100501.86
2018-12-16T04:47:34.714Z,100514.58
2018-12-16T04:52:47.517Z,100502.31
2018-12-16T04:57:58.858Z,100492.13
2018-12-16T05:03:11.152Z,100486.65
2018-12-16T05:08:22.154Z,100491.25
2018-12-16T05:13:34.202Z,100496.00
2018-12-16T05:18:45.886Z,100482.38
2018-12-16T05:23:58.543Z,100473.09
2018-12-16T05:29:09.564Z,100482.03
2018-12-16T05:34:21.829Z,100485.08
2018-12-16T05:39:33.360Z,100477.89
2018-12-16T05:44:46.284Z,100464.25
2018-12-16T05:49:59.728Z,100473.72
2018-12-16T05:55:12.041Z,100470.74
2018-12-16T06:00:23.258Z,100482.14
2018-12-16T06:05:35.316Z,100466.81
2018-12-16T06:10:46.455Z,100481.32
2018-12-16T06:15:58.602Z,100484.32
2018-12-16T06:21:09.813Z,100464.37
2018-12-16T06:26:20.927Z,100467.42
2018-12-16T06:31:33.503Z,100452.97
2018-12-16T06:36:46.541Z,100444.03
2018-12-16T06:41:58.669Z,100453.42
2018-12-16T06:47:10.433Z,100453.11
2018-12-16T06:52:19.432Z,100462.94
2018-12-16T06:57:30.430Z,100444.67
2018-12-16T07:02:42.703Z,100453.20
2018-12-16T07:07:54.291Z,100451.98
2018-12-16T07:13:06.607Z,100449.06
2018-12-16T07:18:17.799Z,100452.89
2018-12-16T07:23:35.002Z,100457.22
2018-12-16T07:26:04.638Z,100469.55
2018-12-16T07:31:16.799Z,100462.80
2018-12-16T07:36:28.873Z,100470.46
2018-12-16T07:41:39.820Z,100485.44
2018-12-16T07:46:52.013Z,100487.54
2018-12-16T07:52:04.315Z,100497.39
2018-12-16T07:57:15.369Z,100497.36
2018-12-16T08:02:27.428Z,100496.07
2018-12-16T08:07:38.482Z,100504.20
2018-12-16T08:10:07.956Z,100509.72
2018-12-16T08:15:20.109Z,100510.18
2018-12-16T08:20:31.131Z,100499.09
2018-12-16T08:25:43.260Z,100510.69
2018-12-16T08:30:56.322Z,100509.86
2018-12-16T08:36:10.535Z,100504.25
2018-12-16T08:41:21.560Z,100512.88
2018-12-16T08:46:34.118Z,100511.59
2018-12-16T08:51:46.220Z,100543.16
2018-12-16T08:56:58.607Z,100532.50
2018-12-16T09:02:10.768Z,100529.99
2018-12-16T09:07:24.182Z,100531.27
2018-12-16T09:12:38.681Z,100528.39
2018-12-16T09:17:50.860Z,100527.94
2018-12-16T09:23:03.136Z,100527.84
2018-12-16T09:28:16.455Z,100524.05
2018-12-16T09:33:30.682Z,100529.58
2018-12-16T09:38:42.142Z,100530.45
2018-12-16T09:43:54.463Z,100533.46
2018-12-16T09:49:07.601Z,100534.33
2018-12-16T09:54:16.325Z,100522.82
2018-12-16T09:59:29.606Z,100531.03
2018-12-16T10:04:43.975Z,100540.77
2018-12-16T10:09:55.135Z,100534.91
2018-12-16T10:15:07.731Z,100545.97
2018-12-16T10:20:19.183Z,100537.88
2018-12-16T10:25:31.243Z,100526.33
2018-12-16T10:30:42.630Z,100536.67
2018-12-16T10:35:54.633Z,100544.35
2018-12-16T10:41:05.917Z,100542.73
2018-12-16T10:46:18.017Z,100554.29
2018-12-16T10:51:30.586Z,100539.19
2018-12-16T10:56:42.549Z,100538.27
2018-12-16T11:01:53.661Z,100530.42
2018-12-16T11:07:04.778Z,100518.94
2018-12-16T11:12:17.029Z,100507.09
2018-12-16T11:17:29.262Z,100505.39
2018-12-16T11:22:43.500Z,100513.11
2018-12-16T11:27:57.593Z,100513.11
2018-12-16T11:33:09.834Z,100508.41
2018-12-16T11:38:21.559Z,100506.64
2018-12-16T11:43:34.838Z,100509.29
2018-12-16T11:48:47.024Z,100507.59
2018-12-16T11:53:59.278Z,100495.18
2018-12-16T11:59:10.432Z,100500.33
2018-12-16T12:04:22.951Z,100494.37
2018-12-16T12:09:34.343Z,100499.44
2018-12-16T12:14:47.288Z,100494.37
2018-12-16T12:19:59.019Z,100501.22
2018-12-16T12:25:11.750Z,100497.00
2018-12-16T12:30:23.220Z,100497.08
2018-12-16T12:35:36.026Z,100494.06
2018-12-16T12:40:48.047Z,100502.62
2018-12-16T12:46:01.857Z,100494.56
2018-12-16T12:51:13.880Z,100503.11
2018-12-16T12:56:26.790Z,100504.39
2018-12-16T13:01:37.769Z,100517.68
2018-12-16T13:06:49.944Z,100518.96
2018-12-16T13:12:01.428Z,100521.52
2018-12-16T13:17:12.829Z,100515.13
2018-12-16T13:19:42.214Z,100521.58
2018-12-16T13:25:11.208Z,100523.66
2018-12-16T13:30:22.405Z,100520.72
2018-12-16T13:35:34.409Z,100506.45
2018-12-16T13:40:45.537Z,100506.75
2018-12-16T13:45:57.749Z,100494.73
2018-12-16T13:51:09.263Z,100509.64
2018-12-16T13:56:21.411Z,100504.14
2018-12-16T14:01:32.706Z,100507.95
2018-12-16T14:06:44.669Z,100510.97
2018-12-16T14:11:56.190Z,100507.97
2018-12-16T14:17:07.271Z,100508.02
2018-12-16T14:19:36.805Z,100515.27
2018-12-16T14:24:49.019Z,100516.95
2018-12-16T14:30:00.245Z,100529.76
2018-12-16T14:32:29.588Z,100525.13
2018-12-16T14:37:41.740Z,100523.81
2018-12-16T14:42:54.552Z,100527.25
2018-12-16T14:48:05.866Z,100535.37
2018-12-16T14:53:17.859Z,100534.92
2018-12-16T14:58:29.391Z,100551.17
2018-12-16T15:03:41.309Z,100560.98
2018-12-16T15:08:54.175Z,100561.41
2018-12-16T15:14:06.285Z,100566.13
2018-12-16T15:19:18.482Z,100570.41
2018-12-16T15:24:30.707Z,100582.34
2018-12-16T15:29:42.355Z,100577.62
2018-12-16T15:34:54.383Z,100576.39
2018-12-16T15:40:07.286Z,100569.95
2018-12-16T15:45:19.341Z,100576.83
2018-12-16T15:50:31.387Z,100561.00
2018-12-16T15:55:43.437Z,100578.56
2018-12-16T16:00:54.404Z,100583.24
2018-12-16T16:03:23.822Z,100578.97
2018-12-16T16:08:34.700Z,100576.85
2018-12-16T16:13:47.046Z,100586.71
2018-12-16T16:18:59.061Z,100593.56
2018-12-16T16:21:28.431Z,100594.01
2018-12-16T16:26:40.512Z,100590.97
2018-12-16T16:31:51.419Z,100595.30
2018-12-16T16:37:03.417Z,100598.29
2018-12-16T16:42:15.312Z,100602.58
2018-12-16T16:47:26.493Z,100603.85
2018-12-16T16:52:38.493Z,100611.16
2018-12-16T16:57:51.257Z,100611.56
2018-12-16T17:03:03.296Z,100612.87
2018-12-16T17:08:14.293Z,100618.46
2018-12-16T17:13:26.851Z,100612.88
2018-12-16T17:18:39.394Z,100614.17
2018-12-16T17:21:08.770Z,100610.77
2018-12-16T17:26:20.844Z,100615.03
2018-12-16T17:31:32.181Z,100614.20
2018-12-16T17:36:44.392Z,100614.64
2018-12-16T17:41:56.509Z,100622.32
2018-12-16T17:47:07.436Z,100636.45
2018-12-16T17:52:19.503Z,100634.31
2018-12-16T17:57:30.919Z,100633.02
2018-12-16T18:02:42.957Z,100638.18
2018-12-16T18:07:54.221Z,100637.33
2018-12-16T18:13:06.554Z,100636.89
2018-12-16T18:18:17.745Z,100639.47
2018-12-16T18:23:29.941Z,100641.61
2018-12-16T18:28:41.278Z,100639.89
2018-12-16T18:33:55.241Z,100654.03
2018-12-16T18:39:10.293Z,100654.02
2018-12-16T18:44:23.301Z,100651.06
2018-12-16T18:49:35.109Z,100663.89
2018-12-16T18:54:47.021Z,100663.87
2018-12-16T18:59:58.112Z,100667.31
2018-12-16T19:05:10.463Z,100667.73
2018-12-16T19:10:21.711Z,100666.02
2018-12-16T19:15:30.302Z,100663.47
2018-12-16T19:20:43.401Z,100670.32
2018-12-16T19:25:55.316Z,100669.47
2018-12-16T19:31:06.408Z,100676.30
2018-12-16T19:36:19.463Z,100679.31
2018-12-16T19:41:27.084Z,100679.31
2018-12-16T19:43:56.426Z,100688.75
2018-12-16T19:49:08.833Z,100693.02
2018-12-16T19:54:21.464Z,100694.30
2018-12-16T19:59:32.574Z,100704.56
2018-12-16T20:04:45.153Z,100702.85
2018-12-16T20:09:53.346Z,100713.12
2018-12-16T20:15:07.086Z,100718.23
2018-12-16T20:20:18.301Z,100723.82
2018-12-16T20:25:30.306Z,100722.11
2018-12-16T20:30:42.604Z,100730.22
2018-12-16T20:35:56.695Z,100733.25
2018-12-16T20:41:07.683Z,100739.23
2018-12-16T20:46:19.944Z,100746.13
2018-12-16T20:51:31.179Z,100747.80
2018-12-16T20:56:43.462Z,100741.41
2018-12-16T21:01:54.692Z,100738.86
2018-12-16T21:07:06.340Z,100742.30
2018-12-16T21:12:26.855Z,100746.14
2018-12-16T21:18:23.878Z,100749.13
2018-12-16T21:23:36.365Z,100743.98
2018-12-16T21:28:47.996Z,100750.45
2018-12-16T21:34:00.748Z,100746.98
2018-12-16T21:39:14.084Z,100746.55
2018-12-16T21:44:26.544Z,100749.55
2018-12-16T21:49:37.879Z,100746.55
2018-12-16T21:54:52.159Z,100751.25
2018-12-16T22:00:03.499Z,100757.23
2018-12-16T22:05:16.439Z,100765.33
2018-12-16T22:10:29.539Z,100766.17
2018-12-16T22:15:41.675Z,100767.02
2018-12-16T22:20:53.013Z,100776.88
2018-12-16T22:23:22.396Z,100777.28
2018-12-16T22:28:33.687Z,100788.42
2018-12-16T22:33:45.867Z,100781.59
2018-12-16T22:38:57.061Z,100785.45
2018-12-16T22:41:26.468Z,100777.74
2018-12-16T22:46:38.768Z,100788.44
2018-12-16T22:51:49.828Z,100804.70
2018-12-16T22:57:01.894Z,100809.87
2018-12-16T23:02:14.137Z,100805.12
2018-12-16T23:07:25.207Z,100810.30
2018-12-16T23:12:37.755Z,100808.58
2018-12-16T23:17:50.139Z,100808.58
2018-12-16T23:23:05.536Z,100804.31
2018-12-16T23:28:17.572Z,100809.46
2018-12-16T23:33:29.925Z,100828.30
2018-12-16T23:38:41.167Z,100830.91
2018-12-16T23:43:53.397Z,100829.20
2018-12-16T23:49:04.277Z,100827.06
2018-12-16T23:54:17.758Z,100818.95
2018-12-16T23:59:37.276Z,100822.38
